createdAt,value
2019-01-29T00:03:22.582Z,98450.12
2019-01-29T00:07:26.807Z,98453.56
2019-01-29T00:11:31.085Z,98441.86
2019-01-29T00:15:35.326Z,98448.79
2019-01-29T00:19:39.597Z,98448.79
2019-01-29T00:23:43.892Z,98442.28
2019-01-29T00:27:48.479Z,98447.48
2019-01-29T00:31:52.764Z,98443.18
2019-01-29T00:35:57.003Z,98447.95
2019-01-29T00:40:02.208Z,98454.89
2019-01-29T00:44:06.496Z,98455.27
2019-01-29T00:48:10.787Z,98461.78
2019-01-29T00:52:15.029Z,98462.17
2019-01-29T00:56:19.312Z,98463.93
2019-01-29T01:00:24.096Z,98461.33
2019-01-29T01:04:28.354Z,98460.45
2019-01-29T01:08:32.632Z,98466.52
2019-01-29T01:12:36.916Z,98472.56
2019-01-29T01:16:41.211Z,98482.53
2019-01-29T01:20:45.468Z,98487.75
2019-01-29T01:24:49.843Z,98492.50
2019-01-29T01:28:54.128Z,98494.26
2019-01-29T01:32:58.415Z,98496.81
2019-01-29T01:37:02.783Z,98493.36
2019-01-29T01:41:07.265Z,98497.72
2019-01-29T01:45:11.922Z,98498.56
2019-01-29T01:49:16.294Z,98503.78
2019-01-29T01:53:21.187Z,98495.14
2019-01-29T01:57:25.448Z,98497.74
2019-01-29T02:01:29.766Z,98510.33
2019-01-29T02:05:34.070Z,98510.31
2019-01-29T02:09:38.310Z,98515.95
2019-01-29T02:13:42.559Z,98528.11
2019-01-29T02:17:46.907Z,98532.02
2019-01-29T02:21:51.175Z,98535.50
2019-01-29T02:25:55.811Z,98534.22
2019-01-29T02:30:00.150Z,98542.91
2019-01-29T02:34:04.524Z,98540.30
2019-01-29T02:38:08.816Z,98541.16
2019-01-29T02:42:13.117Z,98547.69
2019-01-29T02:46:17.443Z,98558.14
2019-01-29T02:50:21.794Z,98567.27
2019-01-29T02:54:26.049Z,98557.27
2019-01-29T02:58:30.346Z,98568.98
2019-01-29T03:02:34.994Z,98566.43
2019-01-29T03:06:39.277Z,98578.16
2019-01-29T03:10:43.539Z,98586.44
2019-01-29T03:14:47.816Z,98587.33
2019-01-29T03:18:52.084Z,98589.05
2019-01-29T03:22:56.316Z,98591.70
2019-01-29T03:27:00.604Z,98604.30
2019-01-29T03:31:04.841Z,98601.69
2019-01-29T03:35:09.367Z,98607.38
2019-01-29T03:39:13.550Z,98617.77
2019-01-29T03:43:17.853Z,98617.35
2019-01-29T03:47:22.107Z,98630.80
2019-01-29T03:51:26.330Z,98636.45
2019-01-29T03:55:30.630Z,98631.70
2019-01-29T03:59:34.866Z,98646.91
2019-01-29T04:03:39.446Z,98644.26
2019-01-29T04:07:43.671Z,98653.84
2019-01-29T04:11:47.965Z,98662.95
2019-01-29T04:15:52.351Z,98665.57
2019-01-29T04:19:56.768Z,98667.73
2019-01-29T04:24:00.989Z,98665.98
2019-01-29T04:28:05.255Z,98677.67
2019-01-29T04:32:09.544Z,98683.30
2019-01-29T04:36:13.820Z,98680.69
2019-01-29T04:40:19.657Z,98685.45
2019-01-29T04:44:23.963Z,98687.15
2019-01-29T04:48:28.259Z,98689.33
2019-01-29T04:52:32.499Z,98689.33
2019-01-29T04:56:37.051Z,98690.63
2019-01-29T05:00:41.375Z,98698.02
2019-01-29T05:04:45.814Z,98694.06
2019-01-29T05:08:50.954Z,98697.52
2019-01-29T05:12:55.508Z,98707.92
2019-01-29T05:16:59.736Z,98724.45
2019-01-29T05:21:05.665Z,98727.90
2019-01-29T05:25:10.526Z,98735.24
2019-01-29T05:29:14.837Z,98746.09
2019-01-29T05:33:19.154Z,98750.86
2019-01-29T05:37:23.469Z,98760.38
2019-01-29T05:41:27.789Z,98762.58
2019-01-29T05:45:32.074Z,98766.87
2019-01-29T05:49:36.592Z,98775.02
2019-01-29T05:53:40.842Z,98784.13
2019-01-29T05:57:45.067Z,98792.31
2019-01-29T06:01:49.316Z,98790.98
2019-01-29T06:05:53.578Z,98812.61
2019-01-29T06:09:57.819Z,98814.31
2019-01-29T06:14:02.074Z,98829.87
2019-01-29T06:18:06.463Z,98834.61
2019-01-29T06:22:10.707Z,98842.84
2019-01-29T06:26:15.013Z,98846.75
2019-01-29T06:30:20.488Z,98853.20
2019-01-29T06:34:24.762Z,98858.86
2019-01-29T06:38:29.275Z,98866.23
2019-01-29T06:42:33.577Z,98864.84
2019-01-29T06:46:38.261Z,98877.41
2019-01-29T06:50:42.518Z,98877.88
2019-01-29T06:54:46.746Z,98889.17
2019-01-29T06:58:51.023Z,98894.84
2019-01-29T07:02:55.401Z,98900.07
2019-01-29T07:06:59.679Z,98902.18
2019-01-29T07:11:03.881Z,98910.05
2019-01-29T07:15:11.358Z,98914.72
2019-01-29T07:19:27.369Z,98920.88
2019-01-29T07:23:31.667Z,98937.39
2019-01-29T07:27:35.943Z,98931.84
2019-01-29T07:31:40.516Z,98942.31
2019-01-29T07:35:44.811Z,98939.37
2019-01-29T07:39:49.107Z,98948.04
2019-01-29T07:43:53.360Z,98956.80
2019-01-29T07:47:57.633Z,98968.98
2019-01-29T07:52:01.885Z,98977.25
2019-01-29T07:56:06.242Z,98974.68
2019-01-29T08:00:11.268Z,98984.75
2019-01-29T08:04:15.540Z,98985.70
2019-01-29T08:08:19.814Z,99007.39
2019-01-29T08:12:24.060Z,99005.25
2019-01-29T08:16:28.336Z,98999.64
2019-01-29T08:20:32.603Z,99004.85
2019-01-29T08:24:36.861Z,99007.42
2019-01-29T08:28:41.113Z,99010.45
2019-01-29T08:32:45.395Z,99009.09
2019-01-29T08:36:49.613Z,99011.33
2019-01-29T08:40:53.890Z,99017.49
2019-01-29T08:44:58.150Z,99023.23
2019-01-29T08:49:02.465Z,99021.98
2019-01-29T08:53:06.674Z,99028.61
2019-01-29T08:57:10.928Z,99034.23
2019-01-29T09:01:15.151Z,99040.67
2019-01-29T09:05:19.562Z,99041.91
2019-01-29T09:09:23.839Z,99041.45
2019-01-29T09:13:28.447Z,99043.28
2019-01-29T09:17:32.706Z,99049.94
2019-01-29T09:21:36.955Z,99049.16
2019-01-29T09:25:41.202Z,99057.03
2019-01-29T09:29:45.454Z,99067.16
2019-01-29T09:33:49.715Z,99068.47
2019-01-29T09:37:54.001Z,99075.88
2019-01-29T09:41:58.257Z,99087.69
2019-01-29T09:46:02.841Z,99091.73
2019-01-29T09:50:07.871Z,99102.28
2019-01-29T09:54:12.633Z,99108.87
2019-01-29T09:58:16.895Z,99097.27
2019-01-29T10:02:21.139Z,99094.66
2019-01-29T10:06:25.427Z,99090.27
2019-01-29T10:10:29.961Z,99091.12
2019-01-29T10:14:34.278Z,99090.27
2019-01-29T10:18:38.599Z,99101.64
2019-01-29T10:22:42.937Z,99109.54
2019-01-29T10:26:47.185Z,99107.45
2019-01-29T10:30:51.526Z,99099.20
2019-01-29T10:34:55.997Z,99093.19
2019-01-29T10:39:00.255Z,99090.97
2019-01-29T10:43:04.619Z,99095.29
2019-01-29T10:47:08.926Z,99091.83
2019-01-29T10:51:13.163Z,99085.40
2019-01-29T10:55:18.011Z,99096.29
2019-01-29T10:59:22.282Z,99088.44
2019-01-29T11:03:26.912Z,99085.86
2019-01-29T11:07:31.469Z,99075.05
2019-01-29T11:11:35.861Z,99067.97
2019-01-29T11:15:41.787Z,99062.02
2019-01-29T11:19:46.107Z,99055.52
2019-01-29T11:23:50.638Z,99054.14
2019-01-29T11:27:54.915Z,99051.02
2019-01-29T11:31:59.175Z,99050.67
2019-01-29T11:36:03.492Z,99065.41
2019-01-29T11:40:11.599Z,99065.46
2019-01-29T11:44:15.900Z,99062.91
2019-01-29T11:48:20.204Z,99072.54
2019-01-29T11:52:24.498Z,99065.23
2019-01-29T11:56:28.802Z,99072.26
2019-01-29T12:00:40.922Z,99060.42
2019-01-29T12:04:45.141Z,99058.17
2019-01-29T12:08:49.717Z,99064.27
2019-01-29T12:12:53.946Z,99065.10
2019-01-29T12:16:58.236Z,99064.63
2019-01-29T12:21:02.460Z,99065.46
2019-01-29T12:25:07.001Z,99067.98
2019-01-29T12:29:11.258Z,99058.36
2019-01-29T12:33:15.649Z,99065.77
2019-01-29T12:37:19.899Z,99064.77
2019-01-29T12:41:24.207Z,99069.93
2019-01-29T12:45:28.533Z,99067.70
2019-01-29T12:49:32.817Z,99060.72
2019-01-29T12:53:43.600Z,99058.88
2019-01-29T12:57:48.102Z,99058.82
2019-01-29T13:01:52.648Z,99059.69
2019-01-29T13:05:56.895Z,99063.95
2019-01-29T13:10:01.482Z,99059.15
2019-01-29T13:14:06.338Z,99068.26
2019-01-29T13:18:12.134Z,99066.12
2019-01-29T13:22:16.839Z,99060.97
2019-01-29T13:26:21.145Z,99055.32
2019-01-29T13:30:30.451Z,99052.83
2019-01-29T13:34:34.843Z,99052.86
2019-01-29T13:38:39.151Z,99053.66
2019-01-29T13:42:43.442Z,99048.34
2019-01-29T13:46:47.775Z,99047.56
2019-01-29T13:50:57.542Z,99048.40
2019-01-29T13:55:02.109Z,99055.32
2019-01-29T13:59:06.462Z,99052.66
2019-01-29T14:03:11.580Z,99063.52
2019-01-29T14:07:16.159Z,99062.21
2019-01-29T14:11:20.454Z,99058.33
2019-01-29T14:15:35.787Z,99061.83
2019-01-29T14:19:40.364Z,99069.24
2019-01-29T14:23:44.672Z,99070.11
2019-01-29T14:27:48.920Z,99064.00
2019-01-29T14:31:53.558Z,99055.80
2019-01-29T14:35:58.209Z,99056.27
2019-01-29T14:40:13.676Z,99060.09
2019-01-29T14:44:26.916Z,99063.00
2019-01-29T14:48:31.159Z,99059.03
2019-01-29T14:52:35.451Z,99066.38
2019-01-29T14:56:39.699Z,99068.98
2019-01-29T15:00:43.933Z,99067.66
2019-01-29T15:04:48.257Z,99064.50
2019-01-29T15:08:52.537Z,99075.73
2019-01-29T15:12:56.791Z,99077.87
2019-01-29T15:17:22.929Z,99073.03
2019-01-29T15:21:27.201Z,99071.16
2019-01-29T15:25:31.893Z,99070.69
2019-01-29T15:29:36.202Z,99066.23
2019-01-29T15:33:40.482Z,99064.41
2019-01-29T15:37:44.750Z,99076.52
2019-01-29T15:41:49.083Z,99072.59
2019-01-29T15:45:53.354Z,99069.52
2019-01-29T15:49:57.636Z,99064.69
2019-01-29T15:54:01.988Z,99060.56
2019-01-29T15:58:08.117Z,99059.52
2019-01-29T16:02:12.399Z,99059.09
2019-01-29T16:06:16.711Z,99056.42
2019-01-29T16:10:24.191Z,99060.12
2019-01-29T16:14:28.471Z,99063.17
2019-01-29T16:18:33.028Z,99058.42
2019-01-29T16:22:37.268Z,99057.81
2019-01-29T16:26:41.655Z,99048.20
2019-01-29T16:30:46.089Z,99059.86
2019-01-29T16:34:51.023Z,99052.86
2019-01-29T16:38:55.468Z,99056.23
2019-01-29T16:42:59.852Z,99060.08
2019-01-29T16:47:04.077Z,99051.49
2019-01-29T16:51:08.481Z,99051.92
2019-01-29T16:55:15.053Z,99050.06
2019-01-29T16:59:19.331Z,99049.10
2019-01-29T17:03:23.580Z,99050.38
2019-01-29T17:07:27.966Z,99048.54
2019-01-29T17:11:32.243Z,99051.41
2019-01-29T17:15:36.645Z,99056.09
2019-01-29T17:19:40.868Z,99049.05
2019-01-29T17:23:45.235Z,99054.69
2019-01-29T17:27:49.816Z,99050.34
2019-01-29T17:31:54.063Z,99049.88
2019-01-29T17:35:58.334Z,99047.68
2019-01-29T17:40:02.694Z,99046.78
2019-01-29T17:44:07.338Z,99051.88
2019-01-29T17:48:11.687Z,99049.24
2019-01-29T17:52:15.959Z,99042.14
2019-01-29T17:56:20.192Z,99042.03
2019-01-29T18:00:29.166Z,99042.00
2019-01-29T18:04:33.495Z,99046.73
2019-01-29T18:08:37.781Z,99050.16
2019-01-29T18:12:42.059Z,99046.98
2019-01-29T18:16:46.607Z,99054.61
2019-01-29T18:20:52.227Z,99049.61
2019-01-29T18:24:56.627Z,99053.33
2019-01-29T18:29:01.942Z,99058.38
2019-01-29T18:33:06.624Z,99051.32
2019-01-29T18:37:10.901Z,99045.89
2019-01-29T18:41:15.239Z,99048.33
2019-01-29T18:45:19.531Z,99047.27
2019-01-29T18:49:24.091Z,99043.60
2019-01-29T18:53:28.438Z,99048.28
2019-01-29T18:57:32.694Z,99043.86
2019-01-29T19:01:37.075Z,99041.58
2019-01-29T19:05:41.428Z,99043.35
2019-01-29T19:09:46.065Z,99046.34
2019-01-29T19:13:50.371Z,99039.72
2019-01-29T19:17:54.892Z,99039.52
2019-01-29T19:21:59.358Z,99040.59
2019-01-29T19:26:03.609Z,99040.72
2019-01-29T19:30:17.288Z,99042.96
2019-01-29T19:34:21.563Z,99042.34
2019-01-29T19:38:25.864Z,99037.07
2019-01-29T19:42:30.147Z,99038.22
2019-01-29T19:46:34.471Z,99024.20
2019-01-29T19:50:38.762Z,99026.28
2019-01-29T19:54:43.067Z,99020.95
2019-01-29T19:58:47.294Z,99019.42
2019-01-29T20:02:51.635Z,99018.80
2019-01-29T20:06:55.887Z,99017.31
2019-01-29T20:11:00.230Z,99024.46
2019-01-29T20:15:05.454Z,99012.78
2019-01-29T20:19:09.768Z,99007.98
2019-01-29T20:23:14.050Z,99001.78
2019-01-29T20:27:18.381Z,99003.03
2019-01-29T20:31:22.719Z,99009.11
2019-01-29T20:35:27.376Z,98992.55
2019-01-29T20:39:34.924Z,99004.55
2019-01-29T20:43:37.683Z,99002.81
2019-01-29T20:47:42.516Z,98997.59
2019-01-29T20:51:46.773Z,98994.47
2019-01-29T20:55:51.338Z,98995.23
2019-01-29T20:59:55.607Z,98991.67
2019-01-29T21:03:59.904Z,98994.05
2019-01-29T21:08:04.757Z,98991.35
2019-01-29T21:12:09.020Z,98988.66
2019-01-29T21:16:13.357Z,98987.27
2019-01-29T21:20:19.726Z,98982.30
2019-01-29T21:24:24.263Z,98979.13
2019-01-29T21:28:28.536Z,98987.75
2019-01-29T21:32:32.816Z,98974.22
2019-01-29T21:36:37.035Z,98980.59
2019-01-29T21:40:41.653Z,98975.30
2019-01-29T21:44:45.926Z,98978.15
2019-01-29T21:48:50.193Z,98987.84
2019-01-29T21:52:54.447Z,98983.58
2019-01-29T21:56:58.741Z,98980.61
2019-01-29T22:01:03.330Z,98968.97
2019-01-29T22:05:10.237Z,98962.17
2019-01-29T22:09:14.557Z,98968.32
2019-01-29T22:13:18.828Z,98963.54
2019-01-29T22:17:23.325Z,98963.15
2019-01-29T22:21:27.588Z,98964.70
2019-01-29T22:25:31.913Z,98949.50
2019-01-29T22:29:36.180Z,98948.16
2019-01-29T22:33:40.465Z,98944.55
2019-01-29T22:37:44.691Z,98935.88
2019-01-29T22:41:49.239Z,98932.48
2019-01-29T22:45:53.515Z,98926.92
2019-01-29T22:49:57.783Z,98920.30
2019-01-29T22:54:02.072Z,98919.16
2019-01-29T22:58:06.924Z,98926.17
2019-01-29T23:02:11.584Z,98926.70
2019-01-29T23:06:25.782Z,98919.45
2019-01-29T23:10:30.077Z,98911.30
2019-01-29T23:14:34.330Z,98896.64
2019-01-29T23:18:38.616Z,98891.25
2019-01-29T23:22:42.890Z,98885.27
2019-01-29T23:26:47.110Z,98877.41
2019-01-29T23:30:51.427Z,98879.98
2019-01-29T23:34:55.648Z,98872.42
2019-01-29T23:38:59.946Z,98876.03
2019-01-29T23:43:04.752Z,98863.10
2019-01-29T23:47:09.059Z,98850.53
2019-01-29T23:51:13.396Z,98846.70
2019-01-29T23:55:17.682Z,98844.06
2019-01-29T23:59:22.275Z,98839.86
